Tiempo atmosférico en la estación meteorológica de Arucas, Las Palmas (86 m.)



Fecha
DESCASC
Temp. máxima en grados centígrados (hora)
DESCASC
Temp. mínima en grados centígrados (hora)
DESCASC
Temp. media en grados centígrados
DESCASC
Racha de viento máxima en m/sg (hora)
DESCASC
Velocidad máxima media en intervalos de 10 minutos(hora)
DESCASC
Precipitaciones diarias en mm
DESCASC
Precipitaciones de 00:00 a 06:00 en mm
DESCASC
Precipitaciones de 06:00 a 12:00 en mm
DESCASC
Precipitaciones de 12:00 a 18:00 en mm
DESCASC
Precipitaciones de 18:00 a 24:00 en mm
DESCASC
21-02-2021 19.9 (14:30) 15.6 (23:59) 17.8 10 (03:40) 5.28 (00:10) 0.2 0.2 0 0 0
20-02-2021 21.5 (14:20) 12.3 (07:10) 16.9 13.33 (22:20) 6.11 (22:20) 3.2 0 0 0 3.2
19-02-2021 20.5 (13:20) 13.5 (06:30) 17 5 (08:40) 3.61 (08:30) 0 0 0 0 0
18-02-2021 20.5 (12:30) 13.6 (00:00) 17.1 6.11 (13:50) 3.89 (12:50) 0 0 0 0 0
17-02-2021 21.8 (13:20) 15.5 (00:00) 18.6 10.28 (10:20) 6.67 (11:40) 0 0 0 0 0
16-02-2021 22.2 (00:00) 17.1 (00:00) 19.7 13.33 (03:10) 8.33 (03:10) 0 0 0 0 0
15-02-2021 26 (14:50) 15.3 (00:00) 20.7 12.22 (13:50) 7.5 (14:00) 0 0 0 0 0
14-02-2021 19.9 (15:00) 15.1 (00:00) 17.5 6.67 (15:30) 4.17 (15:40) 0 0 0 0 0
13-02-2021 20.5 (14:40) 16.2 (00:00) 18.4 5.28 (00:10) 3.06 (11:50) 0 0 0 0 0
12-02-2021 19.7 (12:30) 16 (00:00) 17.9 6.67 (08:00) 3.61 (23:59) 0.4 0.2 0 0.2 0
11-02-2021 21 (13:20) 14.4 (00:00) 17.7 6.11 (13:40) 3.89 (13:40) 0.2 0 0 0 0.2
10-02-2021 20 (12:50) 14.2 (00:00) 17.1 4.17 (10:00) 2.78 (08:40) 0 0 0 0 0
09-02-2021 20.6 (14:10) 15.4 (00:00) 18 5.83 (10:30) 3.33 (00:10) 0 0 0 0 0
08-02-2021 19.6 (15:10) 15.5 (00:00) 17.6 6.11 (23:59) 3.89 (23:59) 0.4 0 0.2 0.2 0
07-02-2021 19.6 (13:10) 14.7 (00:00) 17.2 7.78 (03:40) 3.89 (03:50) 0 0 0 0 0
06-02-2021 18.3 (13:30) 12.3 (00:00) 15.3 15.83 (07:00) 7.22 (10:10) 1.6 0 1.2 0.2 0.2
05-02-2021 14.7 (10:00) 11 (00:00) 12.8 11.67 (10:30) 6.67 (06:30) 23.2 1.8 4.6 13 3.8
04-02-2021 17.3 (00:00) 13.6 (00:00) 15.4 11.11 (17:20) 6.11 (17:20) 13.4 0.6 6 6.6 0.2
03-02-2021 19.1 (11:40) 15.8 (00:00) 17.5 7.5 (23:59) 4.17 (23:30) 0 0 0 0 0
02-02-2021 20.2 (15:20) 16.3 (00:00) 18.3 7.22 (10:00) 4.72 (11:00) 0 0 0 0 0
01-02-2021 20.5 (15:00) 14.3 (00:00) 17.4 4.72 (11:30) 3.06 (12:20) 0 0 0 0 0
31-01-2021 20.2 (13:50) 15.9 (00:00) 18.1 7.22 (03:50) 2.78 (15:00) 1.6 1.4 0.2 0 0
30-01-2021 19.6 (12:40) 14.9 (00:00) 17.3 5.28 (23:10) 3.61 (06:20) 0 0 0 0 0
29-01-2021 20.9 (13:30) 12.1 (00:00) 16.5 4.44 (07:30) 3.06 (07:30) 0 0 0 0 0
28-01-2021 20.9 (16:10) 12.8 (00:00) 16.8 4.72 (05:30) 3.61 (05:30) 0 0 0 0 0
27-01-2021 20.6 (16:00) 16.5 (00:00) 18.6 5.56 (16:50) 3.61 (16:50) 0 0 0 0 0
26-01-2021 20.2 (16:30) 16.9 (00:00) 18.6 6.67 (08:30) 3.33 (08:30) 0 0 0 0 0
25-01-2021 20.5 (15:10) 15.4 (00:00) 17.9 5.28 (17:00) 3.61 (01:20) 0 0 0 0 0

Gráficas

Temp. máximas Temp. mínimas Temp. medias Precipitaciones Rachas de viento máximas Velocidades máximas media en intervalos de 10 minutos

Datos horarios

Fecha y hora oficial Temperatura (ºC) Velocidad del viento (km/h) Dirección del viento Racha (km/h) Dirección de racha Precipitación (mm) Presión (hPa) Tendencia (hPa) Humedad (%)
2021-02-23 23:00:00 17.5 6 Nordeste 14 Nordeste 0 -- -- 77
2021-02-23 22:00:00 16.3 3 Este 8 Este 0 -- -- 84
2021-02-23 21:00:00 15.7 3 Sudeste 8 Sudeste 0 -- -- 84
2021-02-23 20:00:00 17.1 2 Sudeste 8 Nordeste 0 -- -- 78
2021-02-23 19:00:00 18.4 4 Nordeste 10 Nordeste 0 -- -- 73
2021-02-23 18:00:00 18.8 6 Nordeste 15 Nordeste 0 -- -- 71
2021-02-23 17:00:00 19.1 8 Nordeste 16 Nordeste 0 -- -- 77
2021-02-23 16:00:00 19.5 8 Nordeste 16 Nordeste 0 -- -- 76
2021-02-23 15:00:00 19.5 9 Nordeste 17 Este 0 -- -- 76
2021-02-23 14:00:00 19.8 10 Nordeste 17 Nordeste 0 -- -- 73
2021-02-23 13:00:00 19.1 10 Nordeste 19 Nordeste 0 -- -- 77
2021-02-23 12:00:00 19 8 Nordeste 15 Nordeste 0 -- -- 76
2021-02-23 11:00:00 19.9 10 Nordeste 17 Nordeste 0 -- -- 73
2021-02-23 10:00:00 18.3 6 Este 14 Sudeste 0 -- -- 80
2021-02-23 09:00:00 18.3 6 Sudeste 11 Sudeste 0 -- -- 80
2021-02-23 08:00:00 16.4 7 Sudeste 13 Sur 0 -- -- 85
2021-02-23 07:00:00 16.1 6 Sur 10 Sur 0 -- -- 87
2021-02-23 06:00:00 16 6 Sur 10 Sur 0 -- -- 86
2021-02-23 05:00:00 16.4 4 Sur 10 Sur 0 -- -- 86
2021-02-23 04:00:00 15.7 2 Sudoeste 9 Sudoeste 0 -- -- 90
2021-02-23 03:00:00 16 4 Sudoeste 8 Sudoeste 0 -- -- 87
2021-02-23 02:00:00 15.5 3 Sudoeste 8 Sudoeste 0 -- -- 86
2021-02-23 01:00:00 16 4 Sudoeste 11 Sudoeste 0 -- -- 85
2021-02-23 00:00:00 16.1 6 Sudoeste 10 Sudoeste 0 -- -- 84
2021-02-22 23:00:00 16.7 5 Sudoeste 10 Oeste 0 -- -- 82
2021-02-22 22:00:00 15.9 6 Sudoeste 10 Sudoeste 0 -- -- 84
2021-02-22 21:00:00 15.9 5 Sudoeste 6 Sudoeste 0 -- -- 82
2021-02-22 20:00:00 16.8 4 Oeste 6 Oeste 0 -- -- 77
2021-02-22 19:00:00 18.2 3 Noroeste 7 Norte 0 -- -- 71
2021-02-22 18:00:00 19.3 4 Norte 11 Norte 0 -- -- 67
2021-02-22 17:00:00 19.8 7 Norte 12 Norte 0 -- -- 65
2021-02-22 16:00:00 20.1 6 Norte 13 Norte 0 -- -- 65
2021-02-22 15:00:00 19.9 7 Norte 13 Este 0 -- -- 62
2021-02-22 14:00:00 19.8 7 Nordeste 13 Norte 0 -- -- 66
2021-02-22 13:00:00 19.6 7 Nordeste 12 Nordeste 0 -- -- 66
2021-02-22 12:00:00 19.2 6 Nordeste 10 Nordeste 0 -- -- 67
2021-02-22 11:00:00 19.2 5 Nordeste 10 Nordeste 0 -- -- 68
2021-02-22 10:00:00 18.6 4 Este 9 Sudeste 0 -- -- 69
2021-02-22 09:00:00 17.5 0 Calma 5 Sudoeste 0 -- -- 74
2021-02-22 08:00:00 14.6 3 Sudoeste 9 Sudoeste 0 -- -- 84
2021-02-22 07:00:00 14.3 9 Sudoeste 11 Sudoeste 0 -- -- 86
2021-02-22 06:00:00 13.5 4 Sudoeste 6 Sudoeste 0 -- -- 87
2021-02-22 05:00:00 14.5 5 Sudoeste 12 Sudoeste 0 -- -- 83
2021-02-22 04:00:00 14.3 8 Sudoeste 11 Sudoeste 0 -- -- 84
2021-02-22 03:00:00 14.5 5 Sudoeste 9 Sudoeste 0 -- -- 83
2021-02-22 02:00:00 14.5 6 Sudoeste 9 Sudoeste 0 -- -- 84
2021-02-22 01:00:00 14.7 5 Oeste 7 Oeste 0 -- -- 82
2021-02-22 00:00:00 15.6 0 Calma 5 Norte 0 -- -- 79
2021-02-21 23:00:00 16.6 2 Oeste 8 Sudoeste 0 -- -- 74
2021-02-21 22:00:00 16.8 5 Sudoeste 8 Sudoeste 0 -- -- 72
2021-02-21 21:00:00 17.1 4 Noroeste 8 Norte 0 -- -- 69
2021-02-21 20:00:00 16.8 4 Noroeste 8 Norte 0 -- -- 70
2021-02-21 19:00:00 17.3 3 Noroeste 10 Norte 0 -- -- 69
2021-02-21 18:00:00 18.1 5 Norte 12 Norte 0 -- -- 66
2021-02-21 17:00:00 18.7 6 Noroeste 14 Noroeste 0 -- -- 63
2021-02-21 16:00:00 19.2 7 Norte 17 Norte 0 -- -- 61
2021-02-21 15:00:00 19.7 8 Noroeste 20 Norte 0 -- -- 62
2021-02-21 14:00:00 19.8 10 Noroeste 24 Noroeste 0 -- -- 63
2021-02-21 13:00:00 19.7 12 Noroeste 21 Oeste 0 -- -- 61
2021-02-21 12:00:00 19.6 11 Noroeste 23 Noroeste 0 -- -- 62
2021-02-21 11:00:00 19.1 14 Noroeste 26 Noroeste 0 -- -- 61
2021-02-21 10:00:00 18.1 15 Noroeste 28 Noroeste 0 -- -- 66
2021-02-21 09:00:00 17.7 14 Noroeste 28 Noroeste 0 -- -- 69
2021-02-21 08:00:00 17.1 18 Noroeste 32 Noroeste 0 -- -- 68
2021-02-21 07:00:00 17 17 Noroeste 27 Noroeste 0 -- -- 72
2021-02-21 06:00:00 16.9 17 Noroeste 33 Oeste 0 -- -- 72
2021-02-21 05:00:00 17.1 17 Noroeste 33 Noroeste 0 -- -- 77
2021-02-21 04:00:00 17.2 17 Noroeste 36 Oeste 0 -- -- 79
2021-02-21 03:00:00 17 17 Noroeste 29 Noroeste 0 -- -- 84
2021-02-21 02:00:00 17.5 14 Noroeste 30 Noroeste 0.2 -- -- 84
2021-02-21 01:00:00 17.2 14 Noroeste 35 Oeste 0 -- -- 87
2021-02-21 00:00:00 17.3 14 Noroeste 34 Oeste 3.2 -- -- 92
2021-02-20 23:00:00 18.1 19 Noroeste 48 Oeste 0 -- -- 84
2021-02-20 22:00:00 20.8 17 Oeste 28 Oeste 0 -- -- 69
2021-02-20 21:00:00 19.4 6 Sudeste 16 Sudeste 0 -- -- 70
2021-02-20 20:00:00 19.4 14 Sudeste 27 Sudeste 0 -- -- 63
2021-02-20 19:00:00 19.1 8 Sudeste 15 Este 0 -- -- 66
2021-02-20 18:00:00 19.3 6 Este 15 Este 0 -- -- 70
2021-02-20 17:00:00 19.7 11 Este 20 Este 0 -- -- 64
2021-02-20 16:00:00 20.3 9 Este 17 Sudeste 0 -- -- 49
2021-02-20 15:00:00 20.9 8 Norte 17 Este 0 -- -- 61
2021-02-20 14:00:00 20.8 12 Este 21 Nordeste 0 -- -- 58
2021-02-20 13:00:00 20.8 12 Este 21 Este 0 -- -- 58
2021-02-20 12:00:00 19 9 Este 14 Este 0 -- -- 65
2021-02-20 11:00:00 19.8 6 Norte 14 Este 0 -- -- 60
2021-02-20 10:00:00 19.1 8 Sudeste 13 Sudeste 0 -- -- 51
2021-02-20 09:00:00 16.2 4 Sur 7 Sudeste 0 -- -- 61
2021-02-20 08:00:00 15.2 8 Sur 15 Sur 0 -- -- 57
2021-02-20 07:00:00 12.5 5 Sudeste 7 Sudeste 0 -- -- 75
2021-02-20 06:00:00 13.9 3 Sudoeste 11 Sur 0 -- -- 69
2021-02-20 05:00:00 12.5 3 Sur 6 Sudeste 0 -- -- 74
2021-02-20 04:00:00 15.2 5 Sur 21 Sur 0 -- -- 64
2021-02-20 03:00:00 15.8 8 Sur 21 Sur 0 -- -- 71
2021-02-20 02:00:00 13.9 2 Sudeste 19 Sudeste 0 -- -- 78
2021-02-20 01:00:00 14.9 12 Sur 21 Sur 0 -- -- 78
2021-02-20 00:00:00 14.2 4 Sudoeste 7 Sudoeste 0 -- -- 84
2021-02-19 23:00:00 15.3 5 Sudoeste 10 Sudoeste 0 -- -- 78
2021-02-19 22:00:00 15.5 6 Sudoeste 13 Sudoeste 0 -- -- 76
2021-02-19 21:00:00 16.5 9 Sudoeste 13 Sudoeste 0 -- -- 74
2021-02-19 20:00:00 16.8 6 Oeste 9 Oeste 0 -- -- 76
2021-02-19 19:00:00 18.1 3 Noroeste 5 Noroeste 0 -- -- 73
2021-02-19 18:00:00 19.4 3 Nordeste 9 Norte 0 -- -- 70
2021-02-19 17:00:00 20.1 4 Norte 10 Norte 0 -- -- 68
2021-02-19 16:00:00 20.4 6 Norte 13 Norte 0 -- -- 69
2021-02-19 15:00:00 20 7 Norte 12 Norte 0 -- -- 71
2021-02-19 14:00:00 20.1 6 Norte 11 Nordeste 0 -- -- 73
2021-02-19 13:00:00 20.1 5 Nordeste 12 Este 0 -- -- 72
2021-02-19 12:00:00 19.4 6 Nordeste 12 Este 0 -- -- 72
2021-02-19 11:00:00 19.4 5 Nordeste 11 Este 0 -- -- 71
2021-02-19 10:00:00 18.7 6 Este 13 Sur 0 -- -- 72
2021-02-19 09:00:00 16.8 9 Sudeste 18 Sur 0 -- -- 63
2021-02-19 08:00:00 14.9 10 Sur 13 Sur 0 -- -- 77
2021-02-19 07:00:00 14.2 8 Sur 12 Sur 0 -- -- 82
2021-02-19 06:00:00 14 5 Sur 9 Sur 0 -- -- 83
2021-02-19 05:00:00 15.1 7 Sur 13 Sur 0 -- -- 76
2021-02-19 04:00:00 15.4 10 Sur 14 Sur 0 -- -- 66
2021-02-19 03:00:00 15.4 9 Sur 15 Sudeste 0 -- -- 65
2021-02-19 02:00:00 15.5 9 Sudeste 13 Sudeste 0 -- -- 70
2021-02-19 01:00:00 14.9 8 Sur 11 Sur 0 -- -- 49
2021-02-19 00:00:00 15.3 8 Sur 13 Sudeste 0 -- -- 76
2021-02-18 23:00:00 15.4 6 Sur 10 Sudeste 0 -- -- 83
2021-02-18 22:00:00 15.8 6 Sur 11 Sur 0 -- -- 81
2021-02-18 21:00:00 16.4 6 Sur 10 Sur 0 -- -- 82
2021-02-18 20:00:00 16.9 4 Sudeste 10 Este 0 -- -- 81
2021-02-18 19:00:00 17.9 5 Este 12 Nordeste 0 -- -- 77
2021-02-18 18:00:00 18.7 7 Nordeste 17 Nordeste 0 -- -- 74
2021-02-18 17:00:00 19.5 9 Nordeste 18 Nordeste 0 -- -- 70
2021-02-18 16:00:00 19.9 11 Nordeste 21 Nordeste 0 -- -- 68
2021-02-18 15:00:00 20 13 Nordeste 21 Nordeste 0 -- -- 68
2021-02-18 14:00:00 20.2 11 Nordeste 22 Nordeste 0 -- -- 66
2021-02-18 13:00:00 20.5 12 Este 20 Este 0 -- -- 63
2021-02-18 12:00:00 19.6 13 Nordeste 19 Nordeste 0 -- -- 65
2021-02-18 11:00:00 18.9 8 Sudeste 14 Este 0 -- -- 67
2021-02-18 10:00:00 18.6 5 Sudeste 15 Sur 0 -- -- 64
2021-02-18 09:00:00 17 9 Sur 13 Sur 0 -- -- 68
2021-02-18 08:00:00 15.2 8 Sur 13 Sur 0 -- -- 71
2021-02-18 07:00:00 15.4 9 Sur 15 Sur 0 -- -- 69
2021-02-18 06:00:00 15 8 Sur 12 Sur 0 -- -- 69
2021-02-18 05:00:00 14.5 8 Sudeste 10 Sur 0 -- -- 67
2021-02-18 04:00:00 13.8 7 Sudeste 14 Sur 0 -- -- 64
2021-02-18 03:00:00 15 8 Sur 11 Sur 0 -- -- 60
2021-02-18 02:00:00 15.4 8 Sur 13 Sudoeste 0 -- -- 59
2021-02-18 01:00:00 15.4 9 Sur 13 Sur 0 -- -- 51
2021-02-18 00:00:00 15.5 8 Sudeste 14 Sur 0 -- -- 53
2021-02-17 23:00:00 15.6 8 Sur 15 Sur 0 -- -- 49
2021-02-17 22:00:00 15.8 9 Sur 15 Sur 0 -- -- 54
2021-02-17 21:00:00 15.8 11 Sur 16 Sur 0 -- -- 60
2021-02-17 20:00:00 16.1 9 Sudeste 15 Sudeste 0 -- -- 58
2021-02-17 19:00:00 16.9 9 Este 16 Este 0 -- -- 58
2021-02-17 18:00:00 18.1 11 Este 21 Este 0 -- -- 53
2021-02-17 17:00:00 19.3 9 Este 22 Este 0 -- -- 50
2021-02-17 16:00:00 20.3 10 Este 23 Este 0 -- -- 48
2021-02-17 15:00:00 21.1 10 Este 24 Sudeste 0 -- -- 44
2021-02-17 14:00:00 21.7 15 Sudeste 27 Sudeste 0 -- -- 38
2021-02-17 13:00:00 21.5 15 Sudeste 28 Este 0 -- -- 34
2021-02-17 12:00:00 20.4 22 Sudeste 36 Sudeste 0 -- -- 35
2021-02-17 11:00:00 19.7 21 Sudeste 37 Sudeste 0 -- -- 40
2021-02-17 10:00:00 18.9 17 Sudeste 26 Sudeste 0 -- -- 48
2021-02-17 09:00:00 16.8 13 Sudeste 19 Sudeste 0 -- -- 63
2021-02-17 08:00:00 15.7 12 Sur 21 Sudeste 0 -- -- 71
2021-02-17 07:00:00 15.5 12 Sur 18 Sudeste 0 -- -- 67
2021-02-17 06:00:00 15.8 12 Sudeste 19 Sudeste 0 -- -- 67
2021-02-17 05:00:00 16.1 13 Sudeste 21 Sudeste 0 -- -- 69
2021-02-17 04:00:00 16 13 Sudeste 19 Sudeste 0 -- -- 72
2021-02-17 03:00:00 16.6 12 Sur 17 Sudeste 0 -- -- 66
2021-02-17 02:00:00 17 10 Sudeste 17 Sur 0 -- -- 61
2021-02-17 01:00:00 17.1 8 Sur 12 Sur 0 -- -- 51
2021-02-17 00:00:00 17.2 8 Sudeste 13 Sudeste 0 -- -- 44
2021-02-16 23:00:00 17.2 7 Sudeste 15 Sur 0 -- -- 40
2021-02-16 22:00:00 17.3 8 Sur 13 Sur 0 -- -- 39
2021-02-16 21:00:00 17.4 8 Sur 13 Sudeste 0 -- -- 43
2021-02-16 20:00:00 17.9 9 Sur 15 Sudeste 0 -- -- 36
2021-02-16 19:00:00 18.3 9 Sudeste 24 Sudeste 0 -- -- 37
2021-02-16 18:00:00 19.5 16 Sudeste 30 Sudeste 0 -- -- 35
2021-02-16 17:00:00 20.3 18 Sudeste 34 Este 0 -- -- 38
2021-02-16 16:00:00 20.6 21 Este 39 Este 0 -- -- 40
2021-02-16 15:00:00 21.1 19 Sudeste 37 Este 0 -- -- 40
2021-02-16 14:00:00 21 22 Este 41 Sudeste 0 -- -- 41
2021-02-16 13:00:00 21.6 22 Este 40 Este 0 -- -- 39
2021-02-16 12:00:00 21.2 23 Sudeste 40 Sudeste 0 -- -- 39
2021-02-16 11:00:00 20.8 23 Sudeste 41 Sudeste 0 -- -- 41
2021-02-16 10:00:00 19.9 19 Sudeste 32 Sudeste 0 -- -- 47
2021-02-16 09:00:00 18.7 14 Sudeste 23 Sudeste 0 -- -- 50
2021-02-16 08:00:00 18 13 Sudeste 20 Sudeste 0 -- -- 47
2021-02-16 07:00:00 18.2 12 Sudeste 32 Sudeste 0 -- -- 48
2021-02-16 06:00:00 19.1 17 Sudeste 36 Sudeste 0 -- -- 41
2021-02-16 05:00:00 19.9 21 Sudeste 37 Sudeste 0 -- -- 37
2021-02-16 04:00:00 20.6 21 Sudeste 48 Sudeste 0 -- -- 33
2021-02-16 03:00:00 21.6 25 Sudeste 43 Sudeste 0 -- -- 29
2021-02-16 02:00:00 21.5 17 Sudeste 34 Sudeste 0 -- -- 34
2021-02-16 01:00:00 22 20 Sudeste 37 Sudeste 0 -- -- 34
2021-02-16 00:00:00 22.2 21 Sudeste 38 Sudeste 0 -- -- 32
2021-02-15 23:00:00 22.4 20 Sudeste 30 Sudeste 0 -- -- 30
2021-02-15 22:00:00 22 19 Sudeste 32 Sudeste 0 -- -- 27
2021-02-15 21:00:00 22.7 22 Sudeste 33 Sudeste 0 -- -- 25
2021-02-15 20:00:00 22.1 11 Sudeste 20 Sudeste 0 -- -- 25
2021-02-15 19:00:00 22.5 13 Sudeste 19 Sudeste 0 -- -- 25
2021-02-15 18:00:00 23.7 13 Sudeste 31 Sudeste 0 -- -- 24
2021-02-15 17:00:00 24.9 18 Sudeste 33 Sudeste 0 -- -- 23
2021-02-15 16:00:00 25.2 22 Sudeste 37 Sudeste 0 -- -- 23
2021-02-15 15:00:00 26 17 Sudeste 41 Sudeste 0 -- -- 27
2021-02-15 14:00:00 25.6 27 Sudeste 44 Sudeste 0 -- -- 27
2021-02-15 13:00:00 24.6 24 Sudeste 38 Sudeste 0 -- -- 35
2021-02-15 12:00:00 23.8 22 Este 38 Este 0 -- -- 36
2021-02-15 11:00:00 22.3 19 Este 28 Este 0 -- -- 51
2021-02-15 10:00:00 19.2 11 Este 19 Este 0 -- -- 86
2021-02-15 09:00:00 17.3 11 Sudeste 19 Este 0 -- -- 89
2021-02-15 08:00:00 15.7 12 Sudeste 18 Sudeste 0 -- -- 91
2021-02-15 07:00:00 15.6 12 Sudeste 21 Sudeste 0 -- -- 91
2021-02-15 06:00:00 15.5 9 Sudeste 15 Sudeste 0 -- -- 91
2021-02-15 05:00:00 15.6 8 Sur 13 Sudeste 0 -- -- 89
2021-02-15 04:00:00 16.4 8 Sudeste 13 Sur 0 -- -- 87
2021-02-15 03:00:00 16.4 9 Sur 13 Sur 0 -- -- 89
2021-02-15 02:00:00 16.6 4 Sudeste 10 Sudeste 0 -- -- 90
2021-02-15 01:00:00 16.4 4 Sudeste 11 Sudeste 0 -- -- 90
2021-02-15 00:00:00 16.9 3 Este 9 Este 0 -- -- 88
2021-02-14 23:00:00 16.9 0 Calma 8 Este 0 -- -- 87
2021-02-14 22:00:00 16.8 2 Este 9 Nordeste 0 -- -- 87
2021-02-14 21:00:00 16.6 2 Este 5 Norte 0 -- -- 89
2021-02-14 20:00:00 16.7 3 Este 10 Nordeste 0 -- -- 86
2021-02-14 19:00:00 17.3 6 Nordeste 12 Este 0 -- -- 86
2021-02-14 18:00:00 18.3 7 Este 18 Este 0 -- -- 81
2021-02-14 17:00:00 19.2 10 Este 22 Este 0 -- -- 77
2021-02-14 16:00:00 19.4 15 Este 24 Este 0 -- -- 74
2021-02-14 15:00:00 19.9 12 Este 23 Este 0 -- -- 71
2021-02-14 14:00:00 19.3 13 Nordeste 20 Nordeste 0 -- -- 74
2021-02-14 13:00:00 19.1 12 Nordeste 18 Nordeste 0 -- -- 73
2021-02-14 12:00:00 18.5 9 Nordeste 17 Nordeste 0 -- -- 74
2021-02-14 11:00:00 18 8 Nordeste 15 Este 0 -- -- 75
2021-02-14 10:00:00 17.5 6 Este 14 Nordeste 0 -- -- 76
2021-02-14 09:00:00 16.8 6 Este 14 Nordeste 0 -- -- 80
2021-02-14 08:00:00 16.2 3 Sudeste 9 Sudeste 0 -- -- 82
2021-02-14 07:00:00 15.5 4 Sudeste 9 Este 0 -- -- 85
2021-02-14 06:00:00 15.8 3 Nordeste 8 Nordeste 0 -- -- 85
2021-02-14 05:00:00 15.2 0 Calma 5 Sudeste 0 -- -- 87
2021-02-14 04:00:00 15.2 2 Sudeste 5 Sudeste 0 -- -- 88
2021-02-14 03:00:00 15.4 3 Sur 6 Sur 0 -- -- 86
2021-02-14 02:00:00 15.6 3 Sudeste 9 Sudeste 0 -- -- 83
2021-02-14 01:00:00 16.4 4 Sudeste 11 Este 0 -- -- 82
2021-02-14 00:00:00 16.2 4 Sudeste 11 Sudeste 0 -- -- 82
2021-02-13 23:00:00 16.7 3 Sudeste 13 Nordeste 0 -- -- 79
2021-02-13 22:00:00 17.4 3 Nordeste 16 Nordeste 0 -- -- 76
2021-02-13 21:00:00 17.8 5 Nordeste 18 Nordeste 0 -- -- 73
2021-02-13 20:00:00 18 5 Norte 16 Norte 0 -- -- 75
2021-02-13 19:00:00 18.1 3 Norte 16 Nordeste 0 -- -- 73
2021-02-13 18:00:00 18.3 8 Nordeste 15 Nordeste 0 -- -- 72
2021-02-13 17:00:00 19 6 Nordeste 15 Nordeste 0 -- -- 71
2021-02-13 16:00:00 19.4 8 Nordeste 15 Nordeste 0 -- -- 70
2021-02-13 15:00:00 20.2 9 Nordeste 15 Norte 0 -- -- 67
2021-02-13 14:00:00 20.3 9 Nordeste 15 Nordeste 0 -- -- 68
2021-02-13 13:00:00 19.6 7 Nordeste 15 Norte 0 -- -- 72
2021-02-13 12:00:00 19.7 9 Nordeste 19 Nordeste 0 -- -- 70
2021-02-13 07:00:00 -- -- -- -- -- -- -- -- --
2021-02-13 06:00:00 17.3 7 Este 12 Este 0 -- -- 83
2021-02-13 05:00:00 17.1 5 Sudeste 12 Sur 0 -- -- 84
2021-02-13 04:00:00 17.3 6 Este 15 Nordeste 0 -- -- 83
2021-02-13 03:00:00 17.6 4 Este 18 Nordeste 0 -- -- 80
2021-02-13 02:00:00 17.6 5 Nordeste 12 Nordeste 0 -- -- 79
2021-02-13 01:00:00 17.1 4 Nordeste 19 Norte 0 -- -- 79
2021-02-13 00:00:00 17.3 13 Norte 24 Norte 0 -- -- 84
2021-02-12 23:00:00 17.5 9 Norte 17 Norte 0 -- -- 86
2021-02-12 22:00:00 17.7 0 Calma 10 Norte 0 -- -- 85
2021-02-12 21:00:00 17.6 5 Nordeste 15 Norte 0 -- -- 83
2021-02-12 20:00:00 17.6 8 Norte 16 Norte 0 -- -- 82
2021-02-12 19:00:00 17.9 7 Norte 15 Nordeste 0 -- -- 82
2021-02-12 18:00:00 18.4 6 Norte 15 Norte 0 -- -- 81
2021-02-12 17:00:00 18.8 8 Norte 14 Norte 0.2 -- -- 81
2021-02-12 16:00:00 19.4 8 Norte 15 Norte 0 -- -- 80
2021-02-12 15:00:00 19.5 6 Norte 12 Norte 0 -- -- 80
2021-02-12 14:00:00 19.4 6 Norte 14 Norte 0 -- -- 77
2021-02-12 13:00:00 19.2 12 Norte 21 Norte 0 -- -- 82
2021-02-12 12:00:00 19.4 6 Nordeste 13 Nordeste 0 -- -- 78
2021-02-12 11:00:00 18.8 4 Este 9 Sudeste 0 -- -- 80
2021-02-12 10:00:00 18 3 Noroeste 13 Nordeste 0 -- -- 81
2021-02-12 09:00:00 17.4 7 Nordeste 17 Nordeste 0 -- -- 85
2021-02-12 08:00:00 17 11 Nordeste 24 Nordeste 0 -- -- 89
2021-02-12 07:00:00 16 0 Calma 10 Norte 0 -- -- 90
2021-02-12 06:00:00 17.1 6 Nordeste 15 Norte 0 -- -- 87
2021-02-12 05:00:00 17.2 7 Nordeste 15 Nordeste 0 -- -- 85
2021-02-12 04:00:00 17 0 Calma 10 Nordeste 0 -- -- 88
2021-02-12 03:00:00 17 4 Este 12 Nordeste 0 -- -- 89
2021-02-12 02:00:00 17 2 Sudoeste 8 Sudoeste 0 -- -- 89
2021-02-12 01:00:00 17.2 5 Norte 11 Norte 0.2 -- -- 88
2021-02-12 00:00:00 17.4 3 Nordeste 10 Norte 0.2 -- -- 87
2021-02-11 23:00:00 17.3 0 Calma 6 Norte 0 -- -- 86
2021-02-11 22:00:00 17.5 4 Nordeste 14 Norte 0 -- -- 83
2021-02-11 21:00:00 17.9 6 Norte 14 Norte 0 -- -- 81
2021-02-11 20:00:00 17.8 4 Norte 14 Norte 0 -- -- 79
2021-02-11 19:00:00 18.4 5 Norte 13 Noroeste 0 -- -- 76
2021-02-11 18:00:00 19.5 7 Noroeste 14 Noroeste 0 -- -- 71
2021-02-11 17:00:00 19.5 6 Noroeste 13 Oeste 0 -- -- 71
2021-02-11 16:00:00 20.5 9 Noroeste 18 Oeste 0 -- -- 64
2021-02-11 15:00:00 20.4 10 Noroeste 21 Noroeste 0 -- -- 67
2021-02-11 14:00:00 20.1 13 Noroeste 22 Noroeste 0 -- -- 69
2021-02-11 13:00:00 20.6 9 Noroeste 15 Noroeste 0 -- -- 69
2021-02-11 12:00:00 20.2 8 Noroeste 12 Noroeste 0 -- -- 69
2021-02-11 11:00:00 19.7 4 Noroeste 10 Noroeste 0 -- -- 71
2021-02-11 10:00:00 19 5 Noroeste 9 Sudoeste 0 -- -- 73
2021-02-11 09:00:00 17.6 7 Sudoeste 12 Oeste 0 -- -- 75
2021-02-11 08:00:00 15.4 8 Sudoeste 13 Sudoeste 0 -- -- 83
2021-02-11 07:00:00 15.6 8 Sudoeste 14 Sudoeste 0 -- -- 83
2021-02-11 06:00:00 15.2 8 Sudoeste 14 Sudoeste 0 -- -- 77
2021-02-11 05:00:00 15.7 10 Sudoeste 18 Sudoeste 0 -- -- 73
2021-02-11 04:00:00 15.4 10 Sudoeste 15 Sudoeste 0 -- -- 78
2021-02-11 03:00:00 15.3 9 Sudoeste 14 Sudoeste 0 -- -- 81
2021-02-11 02:00:00 14.8 7 Sudoeste 10 Sudoeste 0 -- -- 86
2021-02-11 01:00:00 14.8 5 Sudoeste 9 Sudoeste 0 -- -- 91
2021-02-11 00:00:00 14.4 5 Sudoeste 7 Sudoeste 0 -- -- 93
2021-02-10 23:00:00 14.2 3 Sudoeste 4 Sudoeste 0 -- -- 91
2021-02-10 22:00:00 15 4 Sudoeste 5 Sudoeste 0 -- -- 89
2021-02-10 21:00:00 15.6 3 Sudoeste 4 Sudoeste 0 -- -- 88
2021-02-10 20:00:00 16.5 3 Sudoeste 5 Sudoeste 0 -- -- 85
2021-02-10 19:00:00 18.1 3 Norte 6 Norte 0 -- -- 80
2021-02-10 18:00:00 18.5 4 Norte 10 Norte 0 -- -- 78
2021-02-10 17:00:00 18.9 4 Norte 11 Norte 0 -- -- 76
2021-02-10 16:00:00 19.3 6 Noroeste 11 Noroeste 0 -- -- 75
2021-02-10 15:00:00 19.5 5 Norte 12 Noroeste 0 -- -- 74
2021-02-10 14:00:00 19.6 7 Noroeste 13 Norte 0 -- -- 76
2021-02-10 13:00:00 19.8 7 Noroeste 15 Norte 0 -- -- 74
2021-02-10 12:00:00 19.8 7 Noroeste 13 Norte 0 -- -- 73
2021-02-10 11:00:00 19.5 6 Noroeste 14 Oeste 0 -- -- 72
2021-02-10 10:00:00 18.7 8 Oeste 15 Oeste 0 -- -- 75
2021-02-10 09:00:00 16.9 10 Sudoeste 13 Sudoeste 0 -- -- 79
2021-02-10 08:00:00 14.5 7 Sudoeste 12 Sudoeste 0 -- -- 88
2021-02-10 07:00:00 14.9 7 Sudoeste 10 Sudoeste 0 -- -- 88
2021-02-10 06:00:00 14.8 7 Sudoeste 9 Sudoeste 0 -- -- 87
2021-02-10 05:00:00 15.3 8 Sudoeste 13 Sudoeste 0 -- -- 87
2021-02-10 04:00:00 15.2 8 Sudoeste 10 Sudoeste 0 -- -- 86
2021-02-10 03:00:00 14.6 5 Sudoeste 10 Sudoeste 0 -- -- 85
2021-02-10 02:00:00 15.3 8 Sudoeste 11 Sudoeste 0 -- -- 82
2021-02-10 01:00:00 14.9 6 Sudoeste 9 Sudoeste 0 -- -- 84
2021-02-10 00:00:00 15.5 8 Sudoeste 11 Sudoeste 0 -- -- 83
2021-02-09 23:00:00 15.7 8 Sudoeste 12 Sudoeste 0 -- -- 82
2021-02-09 22:00:00 15.9 8 Sudoeste 11 Sudoeste 0 -- -- 81
2021-02-09 21:00:00 15.8 6 Sudoeste 9 Sudoeste 0 -- -- 82
2021-02-09 20:00:00 15.9 4 Sudoeste 6 Sudoeste 0 -- -- 81
2021-02-09 19:00:00 17.2 3 Sudoeste 9 Noroeste 0 -- -- 76
2021-02-09 18:00:00 19.2 5 Noroeste 12 Noroeste 0 -- -- 69
2021-02-09 17:00:00 20 6 Noroeste 15 Noroeste 0 -- -- 66
2021-02-09 16:00:00 20.1 10 Noroeste 17 Noroeste 0 -- -- 65
2021-02-09 15:00:00 20.5 9 Noroeste 15 Noroeste 0 -- -- 62
2021-02-09 14:00:00 20.4 9 Noroeste 15 Noroeste 0 -- -- 61
2021-02-09 13:00:00 20.3 9 Noroeste 17 Norte 0 -- -- 61
2021-02-09 12:00:00 20.2 8 Noroeste 18 Noroeste 0 -- -- 60
2021-02-09 11:00:00 19.6 9 Noroeste 21 Noroeste 0 -- -- 63
2021-02-09 10:00:00 18.4 9 Oeste 19 Oeste 0 -- -- 67
2021-02-09 09:00:00 17.1 8 Oeste 17 Sudoeste 0 -- -- 73
2021-02-09 08:00:00 16.3 8 Sudoeste 15 Sudoeste 0 -- -- 76
2021-02-09 07:00:00 16.4 7 Oeste 17 Oeste 0 -- -- 76
2021-02-09 06:00:00 16.1 9 Oeste 17 Oeste 0 -- -- 76
2021-02-09 05:00:00 15.9 10 Sudoeste 17 Sudoeste 0 -- -- 75
2021-02-09 04:00:00 15.5 10 Sudoeste 14 Sudoeste 0 -- -- 75
2021-02-09 03:00:00 15.8 7 Sudoeste 12 Sudoeste 0 -- -- 74
2021-02-09 02:00:00 17.1 8 Oeste 17 Noroeste 0 -- -- 68
2021-02-09 01:00:00 17.6 9 Noroeste 18 Oeste 0 -- -- 68
2021-02-09 00:00:00 17.8 14 Noroeste 22 Oeste 0 -- -- 70
2021-02-08 23:00:00 17.7 9 Oeste 19 Noroeste 0 -- -- 67
2021-02-08 22:00:00 17.7 8 Noroeste 18 Noroeste 0 -- -- 69
2021-02-08 21:00:00 17.6 10 Noroeste 18 Noroeste 0 -- -- 73
2021-02-08 20:00:00 17.4 9 Noroeste 18 Noroeste 0 -- -- 78
2021-02-08 19:00:00 17.2 8 Noroeste 15 Oeste 0 -- -- 83
2021-02-08 18:00:00 18.2 8 Noroeste 17 Oeste 0 -- -- 76
2021-02-08 17:00:00 18.6 10 Noroeste 16 Oeste 0 -- -- 75
2021-02-08 16:00:00 18.5 9 Noroeste 19 Noroeste 0 -- -- 79
2021-02-08 15:00:00 19.5 8 Noroeste 16 Noroeste 0.2 -- -- 68
2021-02-08 14:00:00 18.9 9 Noroeste 19 Noroeste 0 -- -- 72
2021-02-08 13:00:00 17.8 12 Noroeste 19 Noroeste 0 -- -- 82
2021-02-08 12:00:00 17 6 Norte 18 Noroeste 0.2 -- -- 87
2021-02-08 11:00:00 17.9 9 Noroeste 15 Oeste 0 -- -- 73
2021-02-08 10:00:00 17.5 8 Oeste 16 Noroeste 0 -- -- 72
2021-02-08 09:00:00 16.7 10 Noroeste 18 Oeste 0 -- -- 78
2021-02-08 08:00:00 16.5 10 Noroeste 18 Noroeste 0 -- -- 74
2021-02-08 07:00:00 16.5 8 Noroeste 18 Noroeste 0 -- -- 74
2021-02-08 06:00:00 16.4 7 Noroeste 20 Noroeste 0 -- -- 72
2021-02-08 05:00:00 16 8 Sudoeste 15 Noroeste 0 -- -- 76
2021-02-08 04:00:00 16.1 9 Noroeste 17 Oeste 0 -- -- 75
2021-02-08 03:00:00 15.8 5 Oeste 12 Sudoeste 0 -- -- 78
2021-02-08 02:00:00 15.8 8 Sudoeste 16 Noroeste 0 -- -- 80
2021-02-08 01:00:00 15.8 6 Oeste 13 Oeste 0 -- -- 80
2021-02-08 00:00:00 15.7 8 Oeste 13 Oeste 0 -- -- 81
2021-02-07 23:00:00 15.7 7 Oeste 13 Sudoeste 0 -- -- 81
2021-02-07 22:00:00 15.7 4 Oeste 10 Oeste 0 -- -- 80
2021-02-07 21:00:00 16.3 6 Noroeste 10 Noroeste 0 -- -- 76
2021-02-07 20:00:00 16.5 4 Noroeste 9 Noroeste 0 -- -- 76
2021-02-07 19:00:00 16.6 6 Oeste 14 Oeste 0 -- -- 79
2021-02-07 18:00:00 17.4 9 Noroeste 17 Norte 0 -- -- 76
2021-02-07 17:00:00 18.5 7 Noroeste 15 Noroeste 0 -- -- 68
2021-02-07 16:00:00 18.9 8 Noroeste 17 Noroeste 0 -- -- 71
2021-02-07 15:00:00 18.3 9 Noroeste 17 Noroeste 0 -- -- 71
2021-02-07 14:00:00 18.7 9 Norte 18 Norte 0 -- -- 66
2021-02-07 13:00:00 19.3 7 Noroeste 14 Norte 0 -- -- 62
2021-02-07 12:00:00 19.1 6 Noroeste 17 Norte 0 -- -- 64
2021-02-07 11:00:00 17.6 6 Norte 14 Oeste 0 -- -- 72
2021-02-07 10:00:00 16.9 6 Oeste 14 Oeste 0 -- -- 71
2021-02-07 09:00:00 15.6 8 Sudoeste 13 Sudoeste 0 -- -- 78
2021-02-07 08:00:00 15 12 Sudoeste 17 Sudoeste 0 -- -- 78
2021-02-07 07:00:00 15 9 Sudoeste 22 Oeste 0 -- -- 77
2021-02-07 06:00:00 16.1 10 Noroeste 22 Norte 0 -- -- 78
2021-02-07 05:00:00 16 12 Noroeste 22 Noroeste 0 -- -- 75
2021-02-07 04:00:00 15.9 11 Oeste 28 Noroeste 0 -- -- 70
2021-02-07 03:00:00 15.9 8 Noroeste 23 Noroeste 0 -- -- 80
2021-02-07 02:00:00 16.1 13 Noroeste 23 Noroeste 0 -- -- 73
2021-02-07 01:00:00 16.2 10 Noroeste 27 Norte 0 -- -- 72
2021-02-07 00:00:00 16.1 12 Noroeste 26 Noroeste 0 -- -- 77
2021-02-06 23:00:00 15.2 12 Oeste 36 Oeste 0.2 -- -- 84
2021-02-06 22:00:00 15.9 20 Noroeste 42 Noroeste 0 -- -- 77
2021-02-06 21:00:00 16.4 21 Noroeste 39 Noroeste 0 -- -- 72
2021-02-06 20:00:00 16.5 18 Noroeste 39 Noroeste 0 -- -- 72
2021-02-06 19:00:00 16.5 23 Noroeste 40 Noroeste 0 -- -- 70
2021-02-06 18:00:00 16.8 22 Noroeste 37 Noroeste 0 -- -- 71
2021-02-06 17:00:00 17.3 19 Noroeste 35 Noroeste 0 -- -- 69
2021-02-06 16:00:00 16.3 17 Noroeste 40 Noroeste 0.2 -- -- 79
2021-02-06 15:00:00 17.7 21 Noroeste 39 Noroeste 0 -- -- 68
2021-02-06 14:00:00 18.2 21 Noroeste 40 Oeste 0 -- -- 66
2021-02-06 13:00:00 17.6 24 Noroeste 41 Noroeste 0 -- -- 64
2021-02-06 12:00:00 17.3 23 Noroeste 41 Oeste 0 -- -- 71
2021-02-06 11:00:00 17.2 22 Noroeste 49 Noroeste 0 -- -- 69
2021-02-06 10:00:00 16.7 20 Noroeste 39 Norte 0 -- -- 69
2021-02-06 09:00:00 14.5 13 Oeste 37 Oeste 0 -- -- 76
2021-02-06 08:00:00 13.1 18 Oeste 35 Oeste 0.6 -- -- 84
2021-02-06 07:00:00 13.7 24 Noroeste 57 Noroeste 0.6 -- -- 72
2021-02-06 06:00:00 13.1 18 Oeste 50 Oeste 0 -- -- 76
2021-02-06 05:00:00 15.4 21 Noroeste 37 Noroeste 0 -- -- 64
2021-02-06 04:00:00 15.2 19 Noroeste 37 Norte 0 -- -- 63
2021-02-06 03:00:00 15.3 19 Noroeste 36 Noroeste 0 -- -- 69
2021-02-06 02:00:00 14.8 22 Noroeste 39 Noroeste 0 -- -- 69
2021-02-06 01:00:00 14.8 24 Noroeste 42 Noroeste 0 -- -- 75
2021-02-06 00:00:00 14.6 22 Noroeste 40 Noroeste 0 -- -- 71
2021-02-05 23:00:00 13 13 Noroeste 40 Noroeste 2.6 -- -- 85
2021-02-05 22:00:00 14.4 16 Noroeste 32 Noroeste 0 -- -- 77
2021-02-05 21:00:00 14.4 19 Noroeste 33 Noroeste 0 -- -- 74
2021-02-05 20:00:00 12 13 Sudoeste 24 Sudoeste 0.2 -- -- 86
2021-02-05 19:00:00 11.4 15 Sudoeste 40 Oeste 1 -- -- 88
2021-02-05 18:00:00 12.7 13 Oeste 26 Oeste 0 -- -- 86
2021-02-05 17:00:00 11.8 13 Sudoeste 22 Oeste 0.6 -- -- 90
2021-02-05 16:00:00 12.4 10 Oeste 24 Oeste 1.6 -- -- 88
2021-02-05 15:00:00 12.4 12 Oeste 33 Noroeste 1.6 -- -- 90
2021-02-05 14:00:00 12.5 12 Noroeste 37 Norte 2.8 -- -- 84
2021-02-05 13:00:00 12.7 13 Oeste 23 Sudoeste 6.4 -- -- 89
2021-02-05 12:00:00 11.6 12 Sudoeste 36 Sudoeste 4 -- -- 90
2021-02-05 11:00:00 13.4 19 Norte 42 Noroeste 0.6 -- -- 82
2021-02-05 10:00:00 14.7 21 Noroeste 40 Oeste 0 -- -- 72
2021-02-05 09:00:00 14.3 15 Oeste 29 Oeste 0 -- -- 71
2021-02-05 08:00:00 13.9 18 Noroeste 30 Oeste 0 -- -- 77
2021-02-05 07:00:00 13.7 15 Noroeste 37 Oeste 0 -- -- 72
2021-02-05 06:00:00 13.7 18 Noroeste 40 Noroeste 0 -- -- 73
2021-02-05 05:00:00 14.2 18 Noroeste 36 Noroeste 0 -- -- 75
2021-02-05 04:00:00 12.4 12 Sudoeste 23 Sudoeste 0.2 -- -- 75
2021-02-05 03:00:00 12.5 12 Sudoeste 22 Oeste 0 -- -- 73
2021-02-05 02:00:00 13.1 13 Oeste 38 Noroeste 1.4 -- -- 78
2021-02-05 01:00:00 13.3 17 Oeste 31 Sudoeste 0.2 -- -- 73
2021-02-05 00:00:00 13.6 14 Sudoeste 24 Sudoeste 0 -- -- 78
2021-02-04 23:00:00 14.6 14 Oeste 32 Oeste 0.2 -- -- 76
2021-02-04 22:00:00 14.7 16 Noroeste 33 Noroeste 0 -- -- 77
2021-02-04 21:00:00 14.9 21 Noroeste 36 Noroeste 0 -- -- 78
2021-02-04 20:00:00 14.5 10 Oeste 29 Noroeste 0 -- -- 77
2021-02-04 19:00:00 15 16 Oeste 35 Noroeste 0 -- -- 76
2021-02-04 18:00:00 14.9 15 Noroeste 40 Noroeste 1.2 -- -- 83
2021-02-04 17:00:00 15.5 17 Noroeste 36 Oeste 4 -- -- 78
2021-02-04 16:00:00 15.3 13 Oeste 30 Noroeste 0.6 -- -- 78
2021-02-04 15:00:00 17.2 14 Oeste 27 Noroeste 0 -- -- 76
2021-02-04 14:00:00 16.3 17 Noroeste 30 Noroeste 0.4 -- -- 78
2021-02-04 13:00:00 15.6 7 Noroeste 21 Noroeste 0.4 -- -- 89
2021-02-04 12:00:00 16.4 15 Noroeste 30 Noroeste 0 -- -- 81
2021-02-04 11:00:00 15.1 13 Noroeste 28 Noroeste 0.4 -- -- 86
2021-02-04 10:00:00 15.7 12 Oeste 30 Noroeste 0 -- -- 85
2021-02-04 09:00:00 14.6 21 Noroeste 36 Oeste 1.4 -- -- 95
2021-02-04 08:00:00 14.4 21 Noroeste 34 Noroeste 4.2 -- -- 95
2021-02-04 07:00:00 15.7 16 Oeste 37 Noroeste 0 -- -- 92
2021-02-04 06:00:00 15.4 6 Sudoeste 13 Sudoeste 0.6 -- -- 91
2021-02-04 05:00:00 15.6 8 Sudoeste 13 Sudoeste 0 -- -- 87
2021-02-04 04:00:00 16.6 9 Oeste 19 Noroeste 0 -- -- 80
2021-02-04 03:00:00 17 12 Noroeste 23 Noroeste 0 -- -- 80
2021-02-04 02:00:00 17 10 Noroeste 21 Oeste 0 -- -- 78
2021-02-04 01:00:00 17.2 11 Noroeste 21 Noroeste 0 -- -- 77
2021-02-04 00:00:00 17.3 14 Noroeste 27 Noroeste 0 -- -- 75
2021-02-03 23:00:00 17.4 10 Noroeste 21 Noroeste 0 -- -- 74
2021-02-03 22:00:00 17.4 10 Noroeste 18 Noroeste 0 -- -- 76
2021-02-03 21:00:00 17.2 8 Noroeste 19 Noroeste 0 -- -- 76
2021-02-03 20:00:00 17.2 11 Noroeste 20 Oeste 0 -- -- 76
2021-02-03 19:00:00 17.3 8 Noroeste 18 Noroeste 0 -- -- 77
2021-02-03 18:00:00 17.8 10 Noroeste 18 Noroeste 0 -- -- 74
2021-02-03 17:00:00 18.3 7 Noroeste 18 Norte 0 -- -- 74
2021-02-03 16:00:00 18.4 8 Noroeste 17 Norte 0 -- -- 73
2021-02-03 15:00:00 18.8 7 Norte 14 Norte 0 -- -- 74
2021-02-03 14:00:00 18.7 8 Norte 14 Norte 0 -- -- 74
2021-02-03 13:00:00 18.9 8 Norte 13 Norte 0 -- -- 74
2021-02-03 12:00:00 19 7 Norte 13 Norte 0 -- -- 74
2021-02-03 11:00:00 18.3 8 Nordeste 15 Nordeste 0 -- -- 76
2021-02-03 10:00:00 17.5 5 Este 9 Sudeste 0 -- -- 78
2021-02-03 09:00:00 16.7 4 Sudeste 12 Sur 0 -- -- 80
2021-02-03 08:00:00 16.3 7 Sur 11 Sur 0 -- -- 82
2021-02-03 07:00:00 16.3 3 Sudeste 9 Sur 0 -- -- 83
2021-02-03 06:00:00 16.4 4 Sudeste 9 Nordeste 0 -- -- 82
2021-02-03 05:00:00 16.5 3 Nordeste 10 Norte 0 -- -- 83
2021-02-03 04:00:00 16 2 Este 8 Nordeste 0 -- -- 85
2021-02-03 03:00:00 16.7 5 Nordeste 10 Norte 0 -- -- 81
2021-02-03 02:00:00 16.7 5 Sudeste 8 Sudeste 0 -- -- 82
2021-02-03 01:00:00 16.9 3 Nordeste 12 Norte 0 -- -- 80
2021-02-03 00:00:00 17.3 5 Nordeste 13 Norte 0 -- -- 80
2021-02-02 23:00:00 17.2 6 Oeste 11 Nordeste 0 -- -- 80
2021-02-02 22:00:00 17.4 6 Noroeste 13 Norte 0 -- -- 83
2021-02-02 21:00:00 17.5 5 Noroeste 11 Noroeste 0 -- -- 85
2021-02-02 20:00:00 17.6 5 Norte 10 Norte 0 -- -- 85
2021-02-02 19:00:00 17.8 3 Noroeste 8 Norte 0 -- -- 83
2021-02-02 18:00:00 18.1 4 Nordeste 10 Nordeste 0 -- -- 81
2021-02-02 17:00:00 18.5 7 Nordeste 16 Nordeste 0 -- -- 79
2021-02-02 16:00:00 19.7 10 Nordeste 17 Nordeste 0 -- -- 76
2021-02-02 15:00:00 20.1 9 Nordeste 17 Nordeste 0 -- -- 75
2021-02-02 14:00:00 19.9 11 Nordeste 20 Este 0 -- -- 74
2021-02-02 13:00:00 19.9 11 Este 21 Este 0 -- -- 76
2021-02-02 12:00:00 19.5 12 Este 24 Este 0 -- -- 77
2021-02-02 11:00:00 19.2 17 Este 25 Este 0 -- -- 79
2021-02-02 10:00:00 17.8 15 Este 26 Este 0 -- -- 82
2021-02-02 09:00:00 16.9 10 Sudeste 19 Sudeste 0 -- -- 85
2021-02-02 08:00:00 16.6 10 Sudeste 17 Sudeste 0 -- -- 86
2021-02-02 07:00:00 16.7 9 Sudeste 17 Sudeste 0 -- -- 87
2021-02-02 06:00:00 16.7 11 Este 18 Este 0 -- -- 86
2021-02-02 05:00:00 17 9 Este 17 Este 0 -- -- 86
2021-02-02 04:00:00 17 9 Este 17 Nordeste 0 -- -- 85
2021-02-02 03:00:00 17.3 8 Este 15 Nordeste 0 -- -- 84
2021-02-02 02:00:00 17.4 7 Este 15 Este 0 -- -- 85
2021-02-02 01:00:00 17.3 6 Sudeste 11 Este 0 -- -- 87
2021-02-02 00:00:00 17.1 6 Sudeste 11 Sudeste 0 -- -- 87
2021-02-01 23:00:00 17.2 5 Sudeste 10 Nordeste 0 -- -- 88
2021-02-01 22:00:00 17.9 5 Este 10 Este 0 -- -- 88
2021-02-01 21:00:00 17.9 5 Este 13 Este 0 -- -- 87
2021-02-01 20:00:00 18.2 5 Este 13 Nordeste 0 -- -- 86
2021-02-01 19:00:00 18.5 6 Este 10 Este 0 -- -- 86
2021-02-01 18:00:00 18.9 6 Nordeste 11 Nordeste 0 -- -- 83
2021-02-01 17:00:00 19.4 6 Nordeste 12 Este 0 -- -- 82
2021-02-01 16:00:00 19.9 6 Nordeste 15 Nordeste 0 -- -- 79
2021-02-01 15:00:00 20.5 8 Nordeste 15 Nordeste 0 -- -- 77
2021-02-01 14:00:00 20.2 6 Norte 14 Nordeste 0 -- -- 79
2021-02-01 13:00:00 19.9 10 Nordeste 15 Nordeste 0 -- -- 81
2021-02-01 12:00:00 20 10 Nordeste 17 Nordeste 0 -- -- 81
2021-02-01 11:00:00 19.8 10 Este 15 Nordeste 0 -- -- 80
2021-02-01 10:00:00 19.6 10 Este 16 Este 0 -- -- 77
2021-02-01 09:00:00 17.2 4 Este 15 Sur 0 -- -- 85
2021-02-01 08:00:00 16.5 4 Sur 10 Sur 0 -- -- 91
2021-02-01 07:00:00 15.1 4 Sudeste 8 Sur 0 -- -- 92
2021-02-01 06:00:00 14.3 0 Calma 6 Sur 0 -- -- 93
2021-02-01 05:00:00 14.4 0 Calma 4 Sudeste 0 -- -- 93
2021-02-01 04:00:00 14.6 0 Calma 6 Sudoeste 0 -- -- 92
2021-02-01 03:00:00 15.8 5 Sudoeste 12 Sudoeste 0 -- -- 89
2021-02-01 02:00:00 15.9 6 Sudoeste 9 Sudoeste 0 -- -- 91
2021-02-01 01:00:00 15.5 5 Sudoeste 7 Sudoeste 0 -- -- 91
2021-02-01 00:00:00 15.9 3 Sudoeste 4 Oeste 0 -- -- 90
2021-01-31 23:00:00 16.4 0 Calma 8 Sudoeste 0 -- -- 89
2021-01-31 22:00:00 16.3 4 Sudoeste 7 Noroeste 0 -- -- 88
2021-01-31 21:00:00 17.4 4 Oeste 10 Norte 0 -- -- 85
2021-01-31 20:00:00 17.6 2 Norte 10 Norte 0 -- -- 84
2021-01-31 19:00:00 17.9 3 Noroeste 13 Norte 0 -- -- 82
2021-01-31 18:00:00 18.5 5 Noroeste 13 Norte 0 -- -- 79
2021-01-31 17:00:00 19.1 6 Norte 14 Norte 0 -- -- 76
2021-01-31 16:00:00 19.5 7 Norte 16 Norte 0 -- -- 74
2021-01-31 15:00:00 20 10 Norte 15 Norte 0 -- -- 73
2021-01-31 14:00:00 19.8 7 Norte 15 Norte 0 -- -- 73
2021-01-31 13:00:00 19.8 8 Norte 14 Norte 0 -- -- 74
2021-01-31 12:00:00 19.9 7 Norte 16 Norte 0 -- -- 74
2021-01-31 11:00:00 19.3 8 Norte 16 Norte 0 -- -- 78
2021-01-31 10:00:00 18.6 7 Norte 14 Norte 0 -- -- 82
2021-01-31 09:00:00 17.1 5 Sudoeste 9 Sudoeste 0.2 -- -- 91
2021-01-31 08:00:00 16.6 3 Este 21 Nordeste 0 -- -- 93
2021-01-31 07:00:00 16 0 Calma 16 Este 0 -- -- 94
2021-01-31 06:00:00 16.4 2 Sudeste 18 Nordeste 0.4 -- -- 95
2021-01-31 05:00:00 16.6 2 Este 13 Sudeste 0 -- -- 95
2021-01-31 04:00:00 16.4 5 Nordeste 26 Este 0.6 -- -- 95
2021-01-31 03:00:00 16.8 5 Este 13 Nordeste 0.4 -- -- 93
2021-01-31 02:00:00 16.8 6 Nordeste 15 Nordeste 0 -- -- 90
2021-01-31 01:00:00 17.3 6 Nordeste 13 Norte 0 -- -- 80
2021-01-31 00:00:00 17.3 5 Nordeste 19 Norte 0 -- -- 79
2021-01-30 23:00:00 17.3 4 Nordeste 17 Nordeste 0 -- -- 81
2021-01-30 22:00:00 17.1 6 Nordeste 14 Nordeste 0 -- -- 81
2021-01-30 21:00:00 16.8 6 Norte 11 Norte 0 -- -- 80
2021-01-30 20:00:00 16.9 0 Calma 12 Norte 0 -- -- 79
2021-01-30 19:00:00 17.3 2 Oeste 15 Norte 0 -- -- 79
2021-01-30 18:00:00 17.6 5 Norte 16 Nordeste 0 -- -- 78
2021-01-30 17:00:00 18.1 6 Norte 14 Norte 0 -- -- 78
2021-01-30 16:00:00 18.7 6 Nordeste 16 Nordeste 0 -- -- 74
2021-01-30 15:00:00 18.8 7 Norte 19 Norte 0 -- -- 74
2021-01-30 14:00:00 19 8 Norte 19 Norte 0 -- -- 74
2021-01-30 13:00:00 19.5 5 Norte 14 Nordeste 0 -- -- 72
2021-01-30 12:00:00 19.1 4 Norte 15 Norte 0 -- -- 74
2021-01-30 11:00:00 18.9 7 Norte 15 Norte 0 -- -- 77
2021-01-30 10:00:00 17.9 3 Norte 9 Norte 0 -- -- 81
2021-01-30 09:00:00 17 2 Norte 10 Norte 0 -- -- 86
2021-01-30 08:00:00 16 4 Noroeste 10 Norte 0 -- -- 92
2021-01-30 07:00:00 15.4 5 Sudeste 18 Sudeste 0 -- -- 90
2021-01-30 06:00:00 15.7 8 Sur 13 Sudeste 0 -- -- 87
2021-01-30 05:00:00 16.5 8 Sudeste 13 Sudeste 0 -- -- 86
2021-01-30 04:00:00 17.1 3 Sudeste 11 Norte 0 -- -- 85
2021-01-30 03:00:00 17.6 2 Noroeste 14 Noroeste 0 -- -- 86
2021-01-30 02:00:00 18 6 Noroeste 18 Noroeste 0 -- -- 89
2021-01-30 01:00:00 17.8 6 Noroeste 12 Oeste 0 -- -- 94
2021-01-30 00:00:00 17.1 6 Oeste 12 Noroeste 0 -- -- 95
2021-01-29 23:00:00 17.6 3 Oeste 6 Sudoeste 0 -- -- 94
2021-01-29 22:00:00 17.1 4 Sudeste 8 Oeste 0 -- -- 92
2021-01-29 21:00:00 18.7 5 Oeste 12 Noroeste 0 -- -- 95
2021-01-29 20:00:00 16.9 0 Calma 5 Oeste 0 -- -- 90
2021-01-29 19:00:00 18.3 3 Oeste 5 Noroeste 0 -- -- 87
2021-01-29 18:00:00 20.1 4 Este 9 Este 0 -- -- 84
2021-01-29 17:00:00 20.5 4 Nordeste 9 Este 0 -- -- 82
2021-01-29 16:00:00 20.2 5 Nordeste 10 Este 0 -- -- 85
2021-01-29 15:00:00 20.3 7 Nordeste 12 Nordeste 0 -- -- 85
2021-01-29 14:00:00 20.7 6 Nordeste 15 Este 0 -- -- 82
2021-01-29 13:00:00 20.7 9 Nordeste 16 Nordeste 0 -- -- 81
2021-01-29 12:00:00 20.1 10 Nordeste 15 Nordeste 0 -- -- 86
2021-01-29 11:00:00 19.6 9 Este 13 Este 0 -- -- 84
2021-01-29 10:00:00 19.3 6 Este 10 Nordeste 0 -- -- 85
2021-01-29 09:00:00 16.2 7 Sudeste 11 Este 0 -- -- 64
2021-01-29 08:00:00 13.7 3 Sudeste 16 Sur 0 -- -- 62
2021-01-29 07:00:00 12.7 7 Sudeste 11 Sudeste 0 -- -- 79
2021-01-29 06:00:00 12.3 4 Sudeste 9 Sudeste 0 -- -- 91
2021-01-29 05:00:00 12.9 0 Calma 4 Noroeste 0 -- -- 94
2021-01-29 04:00:00 13.9 0 Calma 4 Sur 0 -- -- 95
2021-01-29 03:00:00 14.7 2 Sur 7 Sudeste 0 -- -- 96
2021-01-29 02:00:00 16.2 6 Sur 10 Sur 0 -- -- 96
2021-01-29 01:00:00 14.5 0 Calma 5 Oeste 0 -- -- 95
2021-01-29 00:00:00 15.2 2 Sur 4 Sur 0 -- -- 95
2021-01-28 23:00:00 17.3 4 Sudoeste 6 Sudoeste 0 -- -- 96
2021-01-28 22:00:00 16.1 0 Calma 3 Sudoeste 0 -- -- 95
2021-01-28 21:00:00 16.6 0 Calma 3 Sudoeste 0 -- -- 94
2021-01-28 20:00:00 17.3 2 Sudoeste 5 Oeste 0 -- -- 91
2021-01-28 19:00:00 18.5 2 Noroeste 5 Este 0 -- -- 89
2021-01-28 18:00:00 20 4 Nordeste 7 Norte 0 -- -- 89
2021-01-28 17:00:00 20.7 4 Nordeste 9 Noroeste 0 -- -- 86
2021-01-28 16:00:00 20.8 4 Norte 10 Nordeste 0 -- -- 86
2021-01-28 15:00:00 20.3 8 Nordeste 11 Este 0 -- -- 86
2021-01-28 14:00:00 20.2 6 Nordeste 11 Nordeste 0 -- -- 86
2021-01-28 13:00:00 20.6 5 Norte 12 Norte 0 -- -- 85
2021-01-28 12:00:00 20.2 5 Norte 10 Norte 0 -- -- 86
2021-01-28 11:00:00 19.5 5 Norte 8 Norte 0 -- -- 86
2021-01-28 10:00:00 19.3 4 Este 6 Nordeste 0 -- -- 83
2021-01-28 09:00:00 17.3 0 Calma 12 Sudoeste 0 -- -- 82
2021-01-28 08:00:00 13.9 7 Oeste 12 Oeste 0 -- -- 67
2021-01-28 07:00:00 13.8 5 Este 13 Sudeste 0 -- -- 66
2021-01-28 06:00:00 15.2 6 Sudeste 17 Este 0 -- -- 67
2021-01-28 05:00:00 16.1 8 Sudeste 13 Sudeste 0 -- -- 93
2021-01-28 04:00:00 15.9 8 Sur 12 Sur 0 -- -- 92
2021-01-28 03:00:00 17.3 3 Sudoeste 6 Oeste 0 -- -- 92
2021-01-28 02:00:00 16.8 3 Oeste 8 Oeste 0 -- -- 93
2021-01-28 01:00:00 16.4 2 Oeste 8 Oeste 0 -- -- 90
2021-01-28 00:00:00 17.6 6 Oeste 13 Oeste 0 -- -- 89
2021-01-27 23:00:00 17.8 7 Oeste 12 Oeste 0 -- -- 90
2021-01-27 22:00:00 18.1 3 Noroeste 10 Norte 0 -- -- 93
2021-01-27 21:00:00 17.7 3 Noroeste 7 Oeste 0 -- -- 94
2021-01-27 20:00:00 16.7 0 Calma 3 Sudeste 0 -- -- 91
2021-01-27 19:00:00 18.1 3 Sudeste 17 Este 0 -- -- 90
2021-01-27 18:00:00 19.1 12 Este 18 Este 0 -- -- 86
2021-01-27 17:00:00 20.2 13 Este 20 Este 0 -- -- 82
2021-01-27 16:00:00 20.6 9 Nordeste 16 Nordeste 0 -- -- 80
2021-01-27 15:00:00 20.2 10 Nordeste 17 Nordeste 0 -- -- 83
2021-01-27 14:00:00 20.4 10 Nordeste 18 Nordeste 0 -- -- 82
2021-01-27 13:00:00 20.2 12 Nordeste 19 Este 0 -- -- 82
2021-01-27 12:00:00 19.9 10 Nordeste 18 Este 0 -- -- 81
2021-01-27 11:00:00 19.7 10 Este 16 Este 0 -- -- 79
2021-01-27 10:00:00 18.4 9 Nordeste 16 Este 0 -- -- 82
2021-01-27 09:00:00 17.4 5 Sudeste 12 Sudeste 0 -- -- 84
2021-01-27 08:00:00 17.1 5 Sudeste 13 Sudeste 0 -- -- 84
2021-01-27 07:00:00 17.2 7 Sudeste 13 Sur 0 -- -- 82
2021-01-27 06:00:00 17.5 8 Sur 12 Sudeste 0 -- -- 81
2021-01-27 05:00:00 17.6 5 Sudeste 15 Nordeste 0 -- -- 81
2021-01-27 04:00:00 17.8 6 Este 14 Nordeste 0 -- -- 81
2021-01-27 03:00:00 17.8 4 Este 9 Este 0 -- -- 83
2021-01-27 02:00:00 17.7 4 Sudeste 12 Nordeste 0 -- -- 82
2021-01-27 01:00:00 17.6 5 Sudeste 12 Sudeste 0 -- -- 82
2021-01-27 00:00:00 17.9 5 Este 13 Nordeste 0 -- -- 83
2021-01-26 23:00:00 18 6 Este 13 Nordeste 0 -- -- 84
2021-01-26 22:00:00 18 4 Nordeste 15 Este 0 -- -- 84
2021-01-26 21:00:00 18 7 Nordeste 15 Nordeste 0 -- -- 83
2021-01-26 20:00:00 18.1 5 Nordeste 16 Nordeste 0 -- -- 83
2021-01-26 19:00:00 18.3 6 Nordeste 16 Este 0 -- -- 81
2021-01-26 18:00:00 18.7 7 Este 18 Nordeste 0 -- -- 79
2021-01-26 17:00:00 19.5 9 Nordeste 17 Este 0 -- -- 75
2021-01-26 16:00:00 19.4 9 Nordeste 17 Nordeste 0 -- -- 75
2021-01-26 15:00:00 19.5 10 Nordeste 18 Nordeste 0 -- -- 73
2021-01-26 14:00:00 19.9 11 Nordeste 20 Norte 0 -- -- 70
2021-01-26 13:00:00 19.8 10 Nordeste 18 Nordeste 0 -- -- 73
2021-01-26 12:00:00 19.6 8 Este 19 Este 0 -- -- 74
2021-01-26 11:00:00 18.7 9 Este 22 Este 0 -- -- 76
2021-01-26 10:00:00 18.1 9 Este 20 Este 0 -- -- 78
2021-01-26 09:00:00 17.7 11 Este 24 Este 0 -- -- 77
2021-01-26 08:00:00 17.4 7 Sudeste 19 Este 0 -- -- 77
2021-01-26 07:00:00 17.1 8 Sudeste 15 Sudeste 0 -- -- 78
2021-01-26 06:00:00 17.2 7 Este 17 Este 0 -- -- 78
2021-01-26 05:00:00 17.1 8 Este 20 Nordeste 0 -- -- 77
2021-01-26 04:00:00 17 6 Este 16 Nordeste 0 -- -- 78
2021-01-26 03:00:00 16.9 5 Sudeste 16 Nordeste 0 -- -- 78
2021-01-26 02:00:00 17 7 Este 13 Este 0 -- -- 79
2021-01-26 01:00:00 17.3 7 Este 13 Nordeste 0 -- -- 77
2021-01-26 00:00:00 17.4 7 Este 15 Este 0 -- -- 76
2021-01-25 23:00:00 17.6 9 Este 17 Nordeste 0 -- -- 75
2021-01-25 22:00:00 17.7 9 Nordeste 19 Norte 0 -- -- 76
2021-01-25 21:00:00 17.8 8 Nordeste 16 Nordeste 0 -- -- 75
2021-01-25 20:00:00 17.8 4 Este 16 Nordeste 0 -- -- 77
2021-01-25 19:00:00 17.9 6 Este 17 Nordeste 0 -- -- 78
2021-01-25 18:00:00 18.2 8 Nordeste 15 Norte 0 -- -- 78
2021-01-25 17:00:00 18.8 7 Nordeste 19 Este 0 -- -- 75
2021-01-25 16:00:00 19.7 9 Nordeste 17 Nordeste 0 -- -- 74
2021-01-25 15:00:00 20.4 9 Nordeste 19 Este 0 -- -- 73
2021-01-25 14:00:00 20.3 9 Nordeste 17 Nordeste 0 -- -- 73
2021-01-25 13:00:00 20.1 10 Nordeste 18 Nordeste 0 -- -- 75
2021-01-25 12:00:00 19.5 8 Nordeste 13 Nordeste 0 -- -- 78
2021-01-25 11:00:00 19.7 9 Nordeste 14 Este 0 -- -- 78
2021-01-25 10:00:00 18.9 8 Este 10 Este 0 -- -- 83
2021-01-25 09:00:00 17 6 Sudeste 10 Sudeste 0 -- -- 91
2021-01-25 08:00:00 15.8 7 Sudeste 13 Sudeste 0 -- -- 90
2021-01-25 07:00:00 15.4 7 Sudeste 13 Sudeste 0 -- -- 86
2021-01-25 06:00:00 16.2 10 Sudeste 15 Sudeste 0 -- -- 86
2021-01-25 05:00:00 16.6 10 Sudeste 16 Sudeste 0 -- -- 87
2021-01-25 04:00:00 16.4 11 Sudeste 17 Sudeste 0 -- -- 86
2021-01-25 03:00:00 16.7 12 Sudeste 15 Sudeste 0 -- -- 84
2021-01-25 02:00:00 16.7 10 Sudeste 18 Sur 0 -- -- 80
2021-01-25 01:00:00 17 12 Sudeste 16 Sudeste 0 -- -- 82
2021-01-25 00:00:00 16.7 10 Sudeste 15 Sur 0 -- -- 84